This is the latest recevied weather packets stored in our database for station/object LRBS. If no packets are shown the sender has not sent any weather packets the latest 10 day(s).
| Time | Temp. | Humidity | Pressure | Rain* | Wind** | Luminosity | Snow |
|---|---|---|---|---|---|---|---|
| 1788187694 | 32.22° C | 27% | 1016 hPa | - | - | - | - |
| 1788186795 | 32.22° C | 27% | 1016 hPa | - | - | - | - |
| 1788185895 | 32.22° C | 27% | 1016 hPa | - | - | - | - |
| 1788185002 | 32.22° C | 27% | 1016 hPa | - | - | - | - |
| 1788184095 | 32.78° C | 28% | 1016 hPa | - | - | - | - |
| 1788183195 | 32.78° C | 28% | 1016 hPa | - | - | - | - |
| 1788182294 | 32.22° C | 29% | 1016 hPa | - | - | - | - |
| 1788181395 | 32.22° C | 29% | 1016 hPa | - | - | - | - |
| 1788180512 | 31.11° C | 31% | 1016 hPa | - | - | - | - |
| 1788179594 | 31.11° C | 31% | 1016 hPa | - | - | - | - |
| 1788178695 | 32.22° C | 31% | 1017 hPa | - | - | - | - |
| 1788177795 | 32.22° C | 31% | 1017 hPa | - | - | - | - |
| 1788175994 | 30° C | 35% | 1017 hPa | - | - | - | - |
| 1788175115 | 31.11° C | 35% | 1017 hPa | - | - | - | - |
| 1788174194 | 31.11° C | 35% | 1017 hPa | - | - | - | - |
| 1788173295 | 30° C | 38% | 1017 hPa | - | - | - | - |
| 1788172394 | 30° C | 38% | 1017 hPa | - | - | - | - |
| 1788171494 | 30° C | 35% | 1018 hPa | - | - | - | - |
| 1788170594 | 30° C | 35% | 1018 hPa | - | - | - | - |
| 1788169694 | 28.89° C | 35% | 1018 hPa | - | - | - | - |
| 1788168869 | 28.89° C | 35% | 1018 hPa | - | - | - | - |
| 1788167894 | 28.89° C | 33% | 1018 hPa | - | - | - | - |
| 1788166994 | 28.89° C | 33% | 1018 hPa | - | - | - | - |
| 1788166094 | 27.78° C | 37% | 1018 hPa | - | - | - | - |
| 1788165194 | 27.78° C | 37% | 1018 hPa | - | - | - | - |
* Rain since midnight (hover to see other rain measurements)
** Current wind speed in m/s (hover to see current wind gust speed)